sensor_id;sensor_type;location;lat;lon;timestamp;P1;durP1;ratioP1;P2;durP2;ratioP2
33644;SDS011;19986;48.190;16.366;2023-09-12T00:01:41;40.58;;;37.72;;
33644;SDS011;19986;48.190;16.366;2023-09-12T00:04:07;42.20;;;39.00;;
33644;SDS011;19986;48.190;16.366;2023-09-12T00:06:32;40.40;;;37.50;;
33644;SDS011;19986;48.190;16.366;2023-09-12T00:08:58;40.17;;;37.63;;
33644;SDS011;19986;48.190;16.366;2023-09-12T00:11:24;41.95;;;38.75;;
33644;SDS011;19986;48.190;16.366;2023-09-12T00:13:51;42.22;;;39.45;;
33644;SDS011;19986;48.190;16.366;2023-09-12T00:16:17;41.72;;;38.97;;
33644;SDS011;19986;48.190;16.366;2023-09-12T00:18:43;41.05;;;38.15;;
33644;SDS011;19986;48.190;16.366;2023-09-12T00:21:09;38.70;;;36.00;;
33644;SDS011;19986;48.190;16.366;2023-09-12T00:23:34;42.28;;;39.30;;
33644;SDS011;19986;48.190;16.366;2023-09-12T00:26:00;42.72;;;39.70;;
33644;SDS011;19986;48.190;16.366;2023-09-12T00:28:26;41.58;;;38.60;;
33644;SDS011;19986;48.190;16.366;2023-09-12T00:30:53;42.70;;;39.17;;
33644;SDS011;19986;48.190;16.366;2023-09-12T00:33:19;44.35;;;41.22;;
33644;SDS011;19986;48.190;16.366;2023-09-12T00:35:45;41.80;;;39.00;;
33644;SDS011;19986;48.190;16.366;2023-09-12T00:38:11;40.45;;;37.67;;
33644;SDS011;19986;48.190;16.366;2023-09-12T00:40:37;42.28;;;39.47;;
33644;SDS011;19986;48.190;16.366;2023-09-12T00:43:03;42.88;;;39.65;;
33644;SDS011;19986;48.190;16.366;2023-09-12T00:45:29;43.08;;;40.13;;
33644;SDS011;19986;48.190;16.366;2023-09-12T00:47:55;42.03;;;38.97;;
33644;SDS011;19986;48.190;16.366;2023-09-12T00:50:28;43.22;;;40.03;;
33644;SDS011;19986;48.190;16.366;2023-09-12T00:52:55;41.35;;;38.67;;
33644;SDS011;19986;48.190;16.366;2023-09-12T00:55:21;41.28;;;38.13;;
33644;SDS011;19986;48.190;16.366;2023-09-12T00:57:47;40.70;;;37.97;;
33644;SDS011;19986;48.190;16.366;2023-09-12T01:00:14;42.63;;;39.95;;
33644;SDS011;19986;48.190;16.366;2023-09-12T01:02:41;42.00;;;39.08;;
33644;SDS011;19986;48.190;16.366;2023-09-12T01:05:07;42.75;;;39.90;;
33644;SDS011;19986;48.190;16.366;2023-09-12T01:07:37;41.47;;;38.55;;
33644;SDS011;19986;48.190;16.366;2023-09-12T01:10:04;42.78;;;39.63;;
33644;SDS011;19986;48.190;16.366;2023-09-12T01:12:31;40.00;;;37.20;;
33644;SDS011;19986;48.190;16.366;2023-09-12T01:14:57;41.15;;;38.08;;
33644;SDS011;19986;48.190;16.366;2023-09-12T01:17:23;40.47;;;37.72;;
33644;SDS011;19986;48.190;16.366;2023-09-12T01:19:49;41.05;;;38.20;;
33644;SDS011;19986;48.190;16.366;2023-09-12T01:27:38;41.30;;;38.58;;
33644;SDS011;19986;48.190;16.366;2023-09-12T01:30:16;46.03;;;42.58;;
33644;SDS011;19986;48.190;16.366;2023-09-12T01:32:48;42.60;;;40.08;;
33644;SDS011;19986;48.190;16.366;2023-09-12T01:35:15;41.58;;;38.90;;
33644;SDS011;19986;48.190;16.366;2023-09-12T01:37:41;43.42;;;40.70;;
33644;SDS011;19986;48.190;16.366;2023-09-12T01:40:07;40.85;;;38.15;;
33644;SDS011;19986;48.190;16.366;2023-09-12T01:42:38;42.13;;;39.60;;
33644;SDS011;19986;48.190;16.366;2023-09-12T01:45:09;41.53;;;38.92;;
33644;SDS011;19986;48.190;16.366;2023-09-12T01:47:38;42.45;;;39.88;;
33644;SDS011;19986;48.190;16.366;2023-09-12T01:50:07;41.60;;;39.10;;
33644;SDS011;19986;48.190;16.366;2023-09-12T01:52:38;42.95;;;40.03;;
33644;SDS011;19986;48.190;16.366;2023-09-12T01:55:04;41.78;;;39.13;;
33644;SDS011;19986;48.190;16.366;2023-09-12T01:57:32;42.17;;;39.55;;
33644;SDS011;19986;48.190;16.366;2023-09-12T01:59:58;39.70;;;37.35;;
33644;SDS011;19986;48.190;16.366;2023-09-12T02:02:25;41.95;;;39.33;;
33644;SDS011;19986;48.190;16.366;2023-09-12T02:04:54;43.17;;;40.22;;
33644;SDS011;19986;48.190;16.366;2023-09-12T02:07:27;42.17;;;39.67;;
33644;SDS011;19986;48.190;16.366;2023-09-12T02:09:58;42.13;;;39.72;;
33644;SDS011;19986;48.190;16.366;2023-09-12T02:12:26;42.22;;;39.72;;
33644;SDS011;19986;48.190;16.366;2023-09-12T02:14:52;40.38;;;37.65;;
33644;SDS011;19986;48.190;16.366;2023-09-12T02:17:19;42.53;;;39.80;;
33644;SDS011;19986;48.190;16.366;2023-09-12T02:19:46;41.38;;;38.55;;
33644;SDS011;19986;48.190;16.366;2023-09-12T02:22:13;40.90;;;38.40;;
33644;SDS011;19986;48.190;16.366;2023-09-12T02:24:39;42.78;;;40.03;;
33644;SDS011;19986;48.190;16.366;2023-09-12T02:27:05;41.28;;;38.78;;
33644;SDS011;19986;48.190;16.366;2023-09-12T02:29:31;41.55;;;38.85;;
33644;SDS011;19986;48.190;16.366;2023-09-12T02:32:00;43.00;;;40.50;;
33644;SDS011;19986;48.190;16.366;2023-09-12T02:34:26;43.83;;;41.03;;
33644;SDS011;19986;48.190;16.366;2023-09-12T02:36:52;42.88;;;40.03;;
33644;SDS011;19986;48.190;16.366;2023-09-12T02:39:19;44.72;;;41.97;;
33644;SDS011;19986;48.190;16.366;2023-09-12T02:41:45;42.00;;;39.40;;
33644;SDS011;19986;48.190;16.366;2023-09-12T02:44:11;42.53;;;39.88;;
33644;SDS011;19986;48.190;16.366;2023-09-12T02:46:37;40.38;;;37.92;;
33644;SDS011;19986;48.190;16.366;2023-09-12T02:49:03;44.00;;;41.28;;
33644;SDS011;19986;48.190;16.366;2023-09-12T02:51:29;43.63;;;40.92;;
33644;SDS011;19986;48.190;16.366;2023-09-12T02:53:55;41.33;;;38.92;;
33644;SDS011;19986;48.190;16.366;2023-09-12T02:56:20;42.58;;;39.90;;
33644;SDS011;19986;48.190;16.366;2023-09-12T02:58:47;43.13;;;40.03;;
33644;SDS011;19986;48.190;16.366;2023-09-12T03:01:16;41.53;;;38.63;;
33644;SDS011;19986;48.190;16.366;2023-09-12T03:03:45;42.92;;;39.80;;
33644;SDS011;19986;48.190;16.366;2023-09-12T03:06:12;43.08;;;40.40;;
33644;SDS011;19986;48.190;16.366;2023-09-12T03:08:39;42.15;;;39.47;;
33644;SDS011;19986;48.190;16.366;2023-09-12T03:11:06;41.95;;;39.15;;
33644;SDS011;19986;48.190;16.366;2023-09-12T03:13:33;43.80;;;40.83;;
33644;SDS011;19986;48.190;16.366;2023-09-12T03:15:59;42.83;;;40.13;;
33644;SDS011;19986;48.190;16.366;2023-09-12T03:18:26;42.20;;;39.28;;
33644;SDS011;19986;48.190;16.366;2023-09-12T03:20:51;45.28;;;42.40;;
33644;SDS011;19986;48.190;16.366;2023-09-12T03:23:18;43.20;;;40.70;;
33644;SDS011;19986;48.190;16.366;2023-09-12T03:25:45;46.33;;;43.40;;
33644;SDS011;19986;48.190;16.366;2023-09-12T03:28:11;44.47;;;41.45;;
33644;SDS011;19986;48.190;16.366;2023-09-12T03:30:37;41.35;;;38.95;;
33644;SDS011;19986;48.190;16.366;2023-09-12T03:33:04;44.72;;;41.83;;
33644;SDS011;19986;48.190;16.366;2023-09-12T03:35:31;44.20;;;41.13;;
33644;SDS011;19986;48.190;16.366;2023-09-12T03:37:58;42.03;;;39.33;;
33644;SDS011;19986;48.190;16.366;2023-09-12T03:40:24;42.85;;;40.15;;
33644;SDS011;19986;48.190;16.366;2023-09-12T03:42:50;43.05;;;40.40;;
33644;SDS011;19986;48.190;16.366;2023-09-12T03:45:15;42.33;;;39.45;;
33644;SDS011;19986;48.190;16.366;2023-09-12T03:47:41;43.92;;;41.30;;
33644;SDS011;19986;48.190;16.366;2023-09-12T03:50:08;43.47;;;40.58;;
33644;SDS011;19986;48.190;16.366;2023-09-12T03:52:34;43.58;;;40.90;;
33644;SDS011;19986;48.190;16.366;2023-09-12T03:55:00;43.88;;;40.95;;
33644;SDS011;19986;48.190;16.366;2023-09-12T03:57:26;44.72;;;41.45;;
33644;SDS011;19986;48.190;16.366;2023-09-12T03:59:52;45.60;;;42.42;;
33644;SDS011;19986;48.190;16.366;2023-09-12T04:02:18;45.05;;;42.25;;
33644;SDS011;19986;48.190;16.366;2023-09-12T04:04:44;44.08;;;41.40;;
33644;SDS011;19986;48.190;16.366;2023-09-12T04:07:09;44.20;;;41.55;;
33644;SDS011;19986;48.190;16.366;2023-09-12T04:09:35;41.13;;;38.65;;
33644;SDS011;19986;48.190;16.366;2023-09-12T04:12:01;42.95;;;40.00;;
33644;SDS011;19986;48.190;16.366;2023-09-12T04:14:27;44.20;;;41.53;;
33644;SDS011;19986;48.190;16.366;2023-09-12T04:16:53;45.35;;;42.33;;
33644;SDS011;19986;48.190;16.366;2023-09-12T04:19:19;43.95;;;41.08;;
33644;SDS011;19986;48.190;16.366;2023-09-12T04:21:44;46.00;;;42.95;;
33644;SDS011;19986;48.190;16.366;2023-09-12T04:24:10;46.58;;;43.42;;
33644;SDS011;19986;48.190;16.366;2023-09-12T04:26:36;45.80;;;42.55;;
33644;SDS011;19986;48.190;16.366;2023-09-12T04:29:02;46.28;;;43.22;;
33644;SDS011;19986;48.190;16.366;2023-09-12T04:31:28;45.47;;;42.50;;
33644;SDS011;19986;48.190;16.366;2023-09-12T04:33:54;45.85;;;42.60;;
33644;SDS011;19986;48.190;16.366;2023-09-12T04:36:23;45.38;;;42.22;;
33644;SDS011;19986;48.190;16.366;2023-09-12T04:38:48;45.85;;;42.63;;
33644;SDS011;19986;48.190;16.366;2023-09-12T04:41:14;48.47;;;44.35;;
33644;SDS011;19986;48.190;16.366;2023-09-12T04:43:42;44.90;;;41.35;;
33644;SDS011;19986;48.190;16.366;2023-09-12T04:46:11;46.83;;;43.45;;
33644;SDS011;19986;48.190;16.366;2023-09-12T04:48:38;48.05;;;44.28;;
33644;SDS011;19986;48.190;16.366;2023-09-12T04:51:05;47.20;;;43.90;;
33644;SDS011;19986;48.190;16.366;2023-09-12T04:53:31;45.08;;;42.00;;
33644;SDS011;19986;48.190;16.366;2023-09-12T04:56:00;45.67;;;42.15;;
33644;SDS011;19986;48.190;16.366;2023-09-12T04:58:28;45.97;;;42.67;;
33644;SDS011;19986;48.190;16.366;2023-09-12T05:00:55;46.38;;;43.38;;
33644;SDS011;19986;48.190;16.366;2023-09-12T05:03:21;48.80;;;45.22;;
33644;SDS011;19986;48.190;16.366;2023-09-12T05:05:48;44.78;;;41.47;;
33644;SDS011;19986;48.190;16.366;2023-09-12T05:08:15;47.25;;;43.88;;
33644;SDS011;19986;48.190;16.366;2023-09-12T05:10:43;48.17;;;44.17;;
33644;SDS011;19986;48.190;16.366;2023-09-12T05:13:09;47.95;;;43.95;;
33644;SDS011;19986;48.190;16.366;2023-09-12T05:15:35;47.63;;;44.13;;
33644;SDS011;19986;48.190;16.366;2023-09-12T05:18:04;47.55;;;44.20;;
33644;SDS011;19986;48.190;16.366;2023-09-12T05:20:31;49.08;;;45.63;;
33644;SDS011;19986;48.190;16.366;2023-09-12T05:22:57;46.95;;;43.47;;
33644;SDS011;19986;48.190;16.366;2023-09-12T05:25:23;46.92;;;43.22;;
33644;SDS011;19986;48.190;16.366;2023-09-12T05:27:49;48.78;;;44.88;;
33644;SDS011;19986;48.190;16.366;2023-09-12T05:30:15;48.40;;;44.45;;
33644;SDS011;19986;48.190;16.366;2023-09-12T05:32:41;49.40;;;44.50;;
33644;SDS011;19986;48.190;16.366;2023-09-12T05:35:07;50.50;;;45.63;;
33644;SDS011;19986;48.190;16.366;2023-09-12T05:37:33;48.20;;;44.58;;
33644;SDS011;19986;48.190;16.366;2023-09-12T05:39:58;49.00;;;44.38;;
33644;SDS011;19986;48.190;16.366;2023-09-12T05:42:24;49.65;;;44.83;;
33644;SDS011;19986;48.190;16.366;2023-09-12T05:44:50;49.60;;;45.35;;
33644;SDS011;19986;48.190;16.366;2023-09-12T05:47:20;49.15;;;44.97;;
33644;SDS011;19986;48.190;16.366;2023-09-12T05:49:46;47.72;;;43.47;;
33644;SDS011;19986;48.190;16.366;2023-09-12T05:52:12;50.20;;;46.30;;
33644;SDS011;19986;48.190;16.366;2023-09-12T05:54:38;50.35;;;46.20;;
33644;SDS011;19986;48.190;16.366;2023-09-12T05:57:06;47.10;;;43.80;;
33644;SDS011;19986;48.190;16.366;2023-09-12T05:59:32;49.85;;;44.92;;
33644;SDS011;19986;48.190;16.366;2023-09-12T06:01:59;49.83;;;43.88;;
33644;SDS011;19986;48.190;16.366;2023-09-12T06:04:25;48.03;;;43.47;;
33644;SDS011;19986;48.190;16.366;2023-09-12T06:06:51;48.75;;;44.83;;
33644;SDS011;19986;48.190;16.366;2023-09-12T06:09:17;47.85;;;43.83;;
33644;SDS011;19986;48.190;16.366;2023-09-12T06:11:42;51.25;;;47.20;;
33644;SDS011;19986;48.190;16.366;2023-09-12T06:14:09;49.45;;;45.40;;
33644;SDS011;19986;48.190;16.366;2023-09-12T06:16:35;47.95;;;44.22;;
33644;SDS011;19986;48.190;16.366;2023-09-12T06:19:01;49.70;;;45.67;;
33644;SDS011;19986;48.190;16.366;2023-09-12T06:21:26;53.13;;;48.65;;
33644;SDS011;19986;48.190;16.366;2023-09-12T06:24:12;50.92;;;46.53;;
33644;SDS011;19986;48.190;16.366;2023-09-12T06:26:41;50.33;;;45.65;;
33644;SDS011;19986;48.190;16.366;2023-09-12T06:29:08;52.10;;;48.08;;
33644;SDS011;19986;48.190;16.366;2023-09-12T06:31:34;477.88;;;71.90;;
33644;SDS011;19986;48.190;16.366;2023-09-12T06:34:00;52.90;;;48.85;;
33644;SDS011;19986;48.190;16.366;2023-09-12T06:36:27;52.72;;;48.22;;
33644;SDS011;19986;48.190;16.366;2023-09-12T06:38:55;53.10;;;48.67;;
33644;SDS011;19986;48.190;16.366;2023-09-12T06:41:21;55.20;;;49.83;;
33644;SDS011;19986;48.190;16.366;2023-09-12T06:43:47;54.85;;;50.10;;
33644;SDS011;19986;48.190;16.366;2023-09-12T06:46:13;52.00;;;47.28;;
33644;SDS011;19986;48.190;16.366;2023-09-12T06:48:39;61.10;;;48.95;;
33644;SDS011;19986;48.190;16.366;2023-09-12T06:51:07;53.85;;;49.13;;
33644;SDS011;19986;48.190;16.366;2023-09-12T06:53:34;54.03;;;48.95;;
33644;SDS011;19986;48.190;16.366;2023-09-12T06:56:02;51.38;;;47.55;;
33644;SDS011;19986;48.190;16.366;2023-09-12T06:58:28;54.38;;;49.33;;
33644;SDS011;19986;48.190;16.366;2023-09-12T07:00:54;53.67;;;48.38;;
33644;SDS011;19986;48.190;16.366;2023-09-12T07:03:20;56.38;;;51.30;;
33644;SDS011;19986;48.190;16.366;2023-09-12T07:05:46;53.33;;;48.83;;
33644;SDS011;19986;48.190;16.366;2023-09-12T07:08:12;52.33;;;47.58;;
33644;SDS011;19986;48.190;16.366;2023-09-12T07:10:43;52.05;;;47.58;;
33644;SDS011;19986;48.190;16.366;2023-09-12T07:13:12;54.53;;;50.35;;
33644;SDS011;19986;48.190;16.366;2023-09-12T07:15:38;54.42;;;49.53;;
33644;SDS011;19986;48.190;16.366;2023-09-12T07:18:04;53.65;;;48.60;;
33644;SDS011;19986;48.190;16.366;2023-09-12T07:20:32;55.65;;;50.90;;
33644;SDS011;19986;48.190;16.366;2023-09-12T07:22:58;55.15;;;50.75;;
33644;SDS011;19986;48.190;16.366;2023-09-12T07:25:24;54.85;;;50.00;;
33644;SDS011;19986;48.190;16.366;2023-09-12T07:27:50;53.20;;;48.90;;
33644;SDS011;19986;48.190;16.366;2023-09-12T07:30:16;54.47;;;50.03;;
33644;SDS011;19986;48.190;16.366;2023-09-12T07:32:43;53.83;;;48.70;;
33644;SDS011;19986;48.190;16.366;2023-09-12T07:35:09;52.40;;;48.10;;
33644;SDS011;19986;48.190;16.366;2023-09-12T07:37:35;55.25;;;51.05;;
33644;SDS011;19986;48.190;16.366;2023-09-12T07:40:01;54.78;;;50.60;;
33644;SDS011;19986;48.190;16.366;2023-09-12T07:42:31;54.42;;;48.78;;
33644;SDS011;19986;48.190;16.366;2023-09-12T07:44:57;52.42;;;48.38;;
33644;SDS011;19986;48.190;16.366;2023-09-12T07:47:23;59.80;;;49.88;;
33644;SDS011;19986;48.190;16.366;2023-09-12T07:49:53;51.20;;;46.97;;
33644;SDS011;19986;48.190;16.366;2023-09-12T07:52:18;51.45;;;47.28;;
33644;SDS011;19986;48.190;16.366;2023-09-12T07:54:44;53.38;;;48.95;;
33644;SDS011;19986;48.190;16.366;2023-09-12T07:57:10;52.08;;;48.03;;
33644;SDS011;19986;48.190;16.366;2023-09-12T07:59:36;50.97;;;47.08;;
33644;SDS011;19986;48.190;16.366;2023-09-12T08:02:02;51.90;;;47.25;;
33644;SDS011;19986;48.190;16.366;2023-09-12T08:04:27;52.67;;;48.17;;
33644;SDS011;19986;48.190;16.366;2023-09-12T08:06:54;51.90;;;47.67;;
33644;SDS011;19986;48.190;16.366;2023-09-12T08:09:20;51.65;;;47.13;;
33644;SDS011;19986;48.190;16.366;2023-09-12T08:11:46;49.85;;;45.97;;
33644;SDS011;19986;48.190;16.366;2023-09-12T08:14:12;49.70;;;45.88;;
33644;SDS011;19986;48.190;16.366;2023-09-12T08:16:38;50.40;;;46.60;;
33644;SDS011;19986;48.190;16.366;2023-09-12T08:19:04;48.08;;;44.03;;
33644;SDS011;19986;48.190;16.366;2023-09-12T08:21:29;51.72;;;47.78;;
33644;SDS011;19986;48.190;16.366;2023-09-12T08:23:55;50.35;;;46.42;;
33644;SDS011;19986;48.190;16.366;2023-09-12T08:26:22;47.95;;;44.47;;
33644;SDS011;19986;48.190;16.366;2023-09-12T08:28:47;47.97;;;43.80;;
33644;SDS011;19986;48.190;16.366;2023-09-12T08:31:13;49.65;;;45.90;;
33644;SDS011;19986;48.190;16.366;2023-09-12T08:33:39;53.58;;;45.25;;
33644;SDS011;19986;48.190;16.366;2023-09-12T08:36:05;51.72;;;46.67;;
33644;SDS011;19986;48.190;16.366;2023-09-12T08:38:30;47.58;;;43.78;;
33644;SDS011;19986;48.190;16.366;2023-09-12T08:40:56;50.63;;;46.58;;
33644;SDS011;19986;48.190;16.366;2023-09-12T08:43:22;50.30;;;45.83;;
33644;SDS011;19986;48.190;16.366;2023-09-12T08:45:48;47.03;;;43.40;;
33644;SDS011;19986;48.190;16.366;2023-09-12T08:48:15;48.50;;;44.83;;
33644;SDS011;19986;48.190;16.366;2023-09-12T08:50:42;49.58;;;45.28;;
33644;SDS011;19986;48.190;16.366;2023-09-12T08:53:09;46.90;;;42.78;;
33644;SDS011;19986;48.190;16.366;2023-09-12T08:55:35;49.85;;;45.92;;
33644;SDS011;19986;48.190;16.366;2023-09-12T08:58:02;47.72;;;43.78;;
33644;SDS011;19986;48.190;16.366;2023-09-12T09:00:29;47.10;;;43.20;;
33644;SDS011;19986;48.190;16.366;2023-09-12T09:02:56;49.55;;;45.47;;
33644;SDS011;19986;48.190;16.366;2023-09-12T09:05:22;48.28;;;44.72;;
33644;SDS011;19986;48.190;16.366;2023-09-12T09:07:48;48.50;;;44.35;;
33644;SDS011;19986;48.190;16.366;2023-09-12T09:10:16;50.92;;;46.28;;
33644;SDS011;19986;48.190;16.366;2023-09-12T09:12:43;50.25;;;45.05;;
33644;SDS011;19986;48.190;16.366;2023-09-12T09:15:24;50.63;;;46.53;;
33644;SDS011;19986;48.190;16.366;2023-09-12T09:17:55;50.50;;;46.38;;
33644;SDS011;19986;48.190;16.366;2023-09-12T09:22:59;48.83;;;44.65;;
33644;SDS011;19986;48.190;16.366;2023-09-12T09:25:26;48.65;;;43.92;;
33644;SDS011;19986;48.190;16.366;2023-09-12T09:27:52;50.22;;;45.95;;
33644;SDS011;19986;48.190;16.366;2023-09-12T09:30:25;49.63;;;45.63;;
33644;SDS011;19986;48.190;16.366;2023-09-12T09:33:05;50.63;;;45.78;;
33644;SDS011;19986;48.190;16.366;2023-09-12T09:35:30;52.08;;;47.78;;
33644;SDS011;19986;48.190;16.366;2023-09-12T09:37:56;50.03;;;46.13;;
33644;SDS011;19986;48.190;16.366;2023-09-12T09:40:22;51.25;;;47.42;;
33644;SDS011;19986;48.190;16.366;2023-09-12T09:42:53;52.97;;;48.10;;
33644;SDS011;19986;48.190;16.366;2023-09-12T09:45:23;50.70;;;46.17;;
33644;SDS011;19986;48.190;16.366;2023-09-12T09:47:49;51.22;;;46.58;;
33644;SDS011;19986;48.190;16.366;2023-09-12T09:50:16;52.00;;;47.13;;
33644;SDS011;19986;48.190;16.366;2023-09-12T09:52:42;49.92;;;45.78;;
33644;SDS011;19986;48.190;16.366;2023-09-12T09:55:15;50.88;;;46.42;;
33644;SDS011;19986;48.190;16.366;2023-09-12T09:57:41;49.25;;;45.15;;
33644;SDS011;19986;48.190;16.366;2023-09-12T10:00:07;51.47;;;47.05;;
33644;SDS011;19986;48.190;16.366;2023-09-12T10:02:35;49.85;;;45.42;;
33644;SDS011;19986;48.190;16.366;2023-09-12T10:05:04;48.13;;;43.80;;
33644;SDS011;19986;48.190;16.366;2023-09-12T10:07:32;54.83;;;49.38;;
33644;SDS011;19986;48.190;16.366;2023-09-12T10:09:59;51.42;;;47.08;;
33644;SDS011;19986;48.190;16.366;2023-09-12T10:12:28;47.03;;;43.22;;
33644;SDS011;19986;48.190;16.366;2023-09-12T10:14:59;47.22;;;43.53;;
33644;SDS011;19986;48.190;16.366;2023-09-12T10:17:31;49.53;;;45.75;;
33644;SDS011;19986;48.190;16.366;2023-09-12T10:20:04;46.40;;;43.03;;
33644;SDS011;19986;48.190;16.366;2023-09-12T10:22:41;47.80;;;43.88;;
33644;SDS011;19986;48.190;16.366;2023-09-12T10:25:14;47.50;;;43.97;;
33644;SDS011;19986;48.190;16.366;2023-09-12T10:27:41;44.63;;;40.97;;
33644;SDS011;19986;48.190;16.366;2023-09-12T10:30:07;48.58;;;44.92;;
33644;SDS011;19986;48.190;16.366;2023-09-12T10:32:34;48.10;;;44.55;;
33644;SDS011;19986;48.190;16.366;2023-09-12T10:35:01;44.97;;;41.67;;
33644;SDS011;19986;48.190;16.366;2023-09-12T10:37:28;46.38;;;42.55;;
33644;SDS011;19986;48.190;16.366;2023-09-12T10:39:56;46.13;;;42.72;;
33644;SDS011;19986;48.190;16.366;2023-09-12T10:42:23;45.72;;;42.13;;
33644;SDS011;19986;48.190;16.366;2023-09-12T10:44:52;44.78;;;41.25;;
33644;SDS011;19986;48.190;16.366;2023-09-12T10:47:20;45.10;;;41.85;;
33644;SDS011;19986;48.190;16.366;2023-09-12T10:49:46;43.25;;;39.97;;
33644;SDS011;19986;48.190;16.366;2023-09-12T10:52:26;43.72;;;40.33;;
33644;SDS011;19986;48.190;16.366;2023-09-12T10:54:52;46.45;;;42.90;;
33644;SDS011;19986;48.190;16.366;2023-09-12T10:57:19;47.58;;;43.38;;
33644;SDS011;19986;48.190;16.366;2023-09-12T11:02:39;47.03;;;43.30;;
33644;SDS011;19986;48.190;16.366;2023-09-12T11:05:06;42.72;;;39.50;;
33644;SDS011;19986;48.190;16.366;2023-09-12T11:07:55;43.22;;;40.10;;
33644;SDS011;19986;48.190;16.366;2023-09-12T11:10:23;44.78;;;41.53;;
33644;SDS011;19986;48.190;16.366;2023-09-12T11:12:50;43.03;;;39.33;;
33644;SDS011;19986;48.190;16.366;2023-09-12T11:15:17;44.63;;;41.22;;
33644;SDS011;19986;48.190;16.366;2023-09-12T11:17:45;41.88;;;38.75;;
33644;SDS011;19986;48.190;16.366;2023-09-12T11:20:15;41.60;;;38.58;;
33644;SDS011;19986;48.190;16.366;2023-09-12T11:22:42;40.10;;;37.13;;
33644;SDS011;19986;48.190;16.366;2023-09-12T11:25:17;42.80;;;39.70;;
33644;SDS011;19986;48.190;16.366;2023-09-12T11:30:23;41.30;;;38.40;;
33644;SDS011;19986;48.190;16.366;2023-09-12T11:32:56;45.10;;;41.58;;
33644;SDS011;19986;48.190;16.366;2023-09-12T11:35:27;42.22;;;38.97;;
33644;SDS011;19986;48.190;16.366;2023-09-12T11:37:57;41.95;;;38.58;;
33644;SDS011;19986;48.190;16.366;2023-09-12T11:40:26;40.15;;;36.90;;
33644;SDS011;19986;48.190;16.366;2023-09-12T11:43:08;42.05;;;38.80;;
33644;SDS011;19986;48.190;16.366;2023-09-12T11:45:44;41.20;;;37.75;;
33644;SDS011;19986;48.190;16.366;2023-09-12T11:48:11;41.42;;;38.10;;
33644;SDS011;19986;48.190;16.366;2023-09-12T11:50:37;40.85;;;37.97;;
33644;SDS011;19986;48.190;16.366;2023-09-12T11:53:08;42.28;;;38.58;;
33644;SDS011;19986;48.190;16.366;2023-09-12T11:55:41;41.92;;;38.97;;
33644;SDS011;19986;48.190;16.366;2023-09-12T11:58:15;42.08;;;38.72;;
33644;SDS011;19986;48.190;16.366;2023-09-12T12:00:45;41.35;;;38.35;;
33644;SDS011;19986;48.190;16.366;2023-09-12T12:03:14;39.70;;;36.88;;
33644;SDS011;19986;48.190;16.366;2023-09-12T12:05:41;40.80;;;38.13;;
33644;SDS011;19986;48.190;16.366;2023-09-12T12:08:07;44.15;;;40.50;;
33644;SDS011;19986;48.190;16.366;2023-09-12T12:10:34;40.72;;;37.78;;
33644;SDS011;19986;48.190;16.366;2023-09-12T12:13:01;40.08;;;37.10;;
33644;SDS011;19986;48.190;16.366;2023-09-12T12:15:28;39.83;;;36.95;;
33644;SDS011;19986;48.190;16.366;2023-09-12T12:17:54;40.22;;;37.38;;
33644;SDS011;19986;48.190;16.366;2023-09-12T12:20:21;41.15;;;37.90;;
33644;SDS011;19986;48.190;16.366;2023-09-12T12:22:47;42.67;;;39.63;;
33644;SDS011;19986;48.190;16.366;2023-09-12T12:25:14;45.55;;;42.35;;
33644;SDS011;19986;48.190;16.366;2023-09-12T12:27:41;42.80;;;39.45;;
33644;SDS011;19986;48.190;16.366;2023-09-12T12:30:08;41.72;;;38.72;;
33644;SDS011;19986;48.190;16.366;2023-09-12T12:32:41;40.08;;;37.65;;
33644;SDS011;19986;48.190;16.366;2023-09-12T12:35:08;40.15;;;37.13;;
33644;SDS011;19986;48.190;16.366;2023-09-12T12:37:35;39.67;;;36.33;;
33644;SDS011;19986;48.190;16.366;2023-09-12T12:40:01;41.45;;;38.35;;
33644;SDS011;19986;48.190;16.366;2023-09-12T12:42:34;42.25;;;38.67;;
33644;SDS011;19986;48.190;16.366;2023-09-12T12:45:10;38.75;;;35.83;;
33644;SDS011;19986;48.190;16.366;2023-09-12T12:47:38;39.38;;;36.63;;
33644;SDS011;19986;48.190;16.366;2023-09-12T12:50:11;41.70;;;38.92;;
33644;SDS011;19986;48.190;16.366;2023-09-12T12:52:39;39.17;;;36.28;;
33644;SDS011;19986;48.190;16.366;2023-09-12T12:55:06;42.13;;;38.63;;
33644;SDS011;19986;48.190;16.366;2023-09-12T12:57:37;39.45;;;36.75;;
33644;SDS011;19986;48.190;16.366;2023-09-12T13:00:05;40.08;;;37.00;;
33644;SDS011;19986;48.190;16.366;2023-09-12T13:02:33;43.10;;;40.15;;
33644;SDS011;19986;48.190;16.366;2023-09-12T13:04:59;41.92;;;38.50;;
33644;SDS011;19986;48.190;16.366;2023-09-12T13:07:25;39.90;;;37.28;;
33644;SDS011;19986;48.190;16.366;2023-09-12T13:09:50;41.58;;;38.60;;
33644;SDS011;19986;48.190;16.366;2023-09-12T13:12:16;40.05;;;37.03;;
33644;SDS011;19986;48.190;16.366;2023-09-12T13:14:43;39.30;;;35.38;;
33644;SDS011;19986;48.190;16.366;2023-09-12T13:17:09;39.67;;;37.08;;
33644;SDS011;19986;48.190;16.366;2023-09-12T13:19:35;39.30;;;36.67;;
33644;SDS011;19986;48.190;16.366;2023-09-12T13:22:01;41.42;;;37.92;;
33644;SDS011;19986;48.190;16.366;2023-09-12T13:24:27;44.08;;;39.97;;
33644;SDS011;19986;48.190;16.366;2023-09-12T13:26:53;39.00;;;35.78;;
33644;SDS011;19986;48.190;16.366;2023-09-12T13:29:19;40.28;;;37.47;;
33644;SDS011;19986;48.190;16.366;2023-09-12T13:31:45;41.10;;;37.78;;
33644;SDS011;19986;48.190;16.366;2023-09-12T13:34:11;41.90;;;38.67;;
33644;SDS011;19986;48.190;16.366;2023-09-12T13:36:37;45.72;;;42.33;;
33644;SDS011;19986;48.190;16.366;2023-09-12T13:39:03;42.58;;;39.58;;
33644;SDS011;19986;48.190;16.366;2023-09-12T13:41:29;39.90;;;36.28;;
33644;SDS011;19986;48.190;16.366;2023-09-12T13:43:55;40.10;;;36.88;;
33644;SDS011;19986;48.190;16.366;2023-09-12T13:46:20;41.75;;;38.00;;
33644;SDS011;19986;48.190;16.366;2023-09-12T13:48:46;40.10;;;36.95;;
33644;SDS011;19986;48.190;16.366;2023-09-12T13:51:14;41.45;;;38.45;;
33644;SDS011;19986;48.190;16.366;2023-09-12T13:53:40;41.35;;;38.33;;
33644;SDS011;19986;48.190;16.366;2023-09-12T13:56:06;39.80;;;36.75;;
33644;SDS011;19986;48.190;16.366;2023-09-12T13:58:33;39.20;;;36.47;;
33644;SDS011;19986;48.190;16.366;2023-09-12T14:00:59;41.88;;;38.65;;
33644;SDS011;19986;48.190;16.366;2023-09-12T14:03:26;40.28;;;37.42;;
33644;SDS011;19986;48.190;16.366;2023-09-12T14:05:53;40.72;;;38.00;;
33644;SDS011;19986;48.190;16.366;2023-09-12T14:08:19;40.03;;;37.13;;
33644;SDS011;19986;48.190;16.366;2023-09-12T14:10:44;41.47;;;38.47;;
33644;SDS011;19986;48.190;16.366;2023-09-12T14:13:10;42.08;;;39.22;;
33644;SDS011;19986;48.190;16.366;2023-09-12T14:15:55;41.67;;;38.45;;
33644;SDS011;19986;48.190;16.366;2023-09-12T14:18:22;39.90;;;37.30;;
33644;SDS011;19986;48.190;16.366;2023-09-12T14:20:48;40.42;;;37.72;;
33644;SDS011;19986;48.190;16.366;2023-09-12T14:23:16;42.63;;;38.90;;